Time;durP1;ratioP1;P1;durP2;ratioP2;P2;SDS_P1;SDS_P2;PMS_P1;PMS_P2;Temp;Humidity;BMP_temperature;BMP_pressure;BME280_temperature;BME280_humidity;BME280_pressure;Samples;Min_cycle;Max_cycle;Signal;HPM_P1;HPM_P2
2023/08/14 00:02:28;;;;;;;8.07;6.37;;;;;;;17.40;100.00;97986.50;6224509;28;20227;-51
2023/08/14 00:05:32;;;;;;;7.10;6.40;;;;;;;17.38;100.00;97991.34;6227986;28;20246;-53
2023/08/14 00:08:35;;;;;;;7.60;6.80;;;;;;;17.38;100.00;97985.16;6224767;28;20319;-53
2023/08/14 00:11:37;;;;;;;7.47;6.77;;;;;;;17.36;100.00;97982.75;6224778;28;20243;-52
2023/08/14 00:14:40;;;;;;;7.57;6.90;;;;;;;17.29;100.00;97984.97;6227493;28;20238;-54
2023/08/14 00:17:42;;;;;;;7.07;6.43;;;;;;;17.28;100.00;97983.31;6207981;28;20709;-53
2023/08/14 00:20:45;;;;;;;8.10;7.30;;;;;;;17.25;100.00;97983.91;6228711;28;20318;-53
2023/08/14 00:23:47;;;;;;;7.80;7.10;;;;;;;17.19;100.00;97983.13;6228102;28;20322;-51
2023/08/14 00:26:50;;;;;;;7.93;7.23;;;;;;;17.15;100.00;97982.06;6228182;28;20289;-53
2023/08/14 00:29:52;;;;;;;8.13;7.33;;;;;;;17.11;100.00;97972.94;6224217;28;20789;-53
2023/08/14 00:32:55;;;;;;;9.27;8.37;;;;;;;17.12;100.00;97985.31;6202831;28;20232;-53
2023/08/14 00:35:57;;;;;;;8.53;7.73;;;;;;;17.08;100.00;97989.63;6211335;28;20232;-52
2023/08/14 00:38:59;;;;;;;9.20;8.23;;;;;;;17.06;100.00;97980.22;6227092;28;20232;-53
2023/08/14 00:42:01;;;;;;;8.53;7.83;;;;;;;17.02;100.00;97986.16;6228114;28;20231;-52
2023/08/14 00:45:07;;;;;;;8.73;7.97;;;;;;;17.04;100.00;97985.88;6230678;28;20585;-53
2023/08/14 00:48:09;;;;;;;8.20;7.40;;;;;;;17.00;100.00;97988.31;6232367;28;20231;-54
2023/08/14 00:51:12;;;;;;;10.13;7.37;;;;;;;16.96;100.00;97973.81;6210829;28;20247;-52
2023/08/14 00:54:21;;;;;;;7.43;6.83;;;;;;;16.91;100.00;97975.72;6245218;28;20361;-52
2023/08/14 00:57:40;;;;;;;8.50;7.70;;;;;;;16.93;100.00;97981.59;6231878;28;20228;-51
2023/08/14 01:00:59;;;;;;;7.10;6.50;;;;;;;16.88;100.00;97987.00;6219851;28;20237;-53
2023/08/14 01:04:08;;;;;;;8.37;7.67;;;;;;;16.83;100.00;97982.44;6207351;28;20266;-51
2023/08/14 01:07:24;;;;;;;7.90;7.20;;;;;;;16.84;100.00;97980.56;6229399;28;20231;-54
2023/08/14 01:10:42;;;;;;;9.33;7.93;;;;;;;16.80;100.00;97979.50;6226091;28;20282;-53
2023/08/14 01:14:26;;;;;;;8.60;7.80;;;;;;;16.77;100.00;97984.34;6221159;28;20262;-53
2023/08/14 01:17:32;;;;;;;9.93;7.63;;;;;;;16.73;100.00;97977.91;6175107;28;20240;-54
2023/08/14 01:20:42;;;;;;;9.17;8.20;;;;;;;16.72;100.00;97978.19;6227445;28;20744;-55
2023/08/14 01:24:34;;;;;;;8.90;8.10;;;;;;;16.70;100.00;97980.34;6235865;28;20246;-51
2023/08/14 01:27:47;;;;;;;8.30;7.60;;;;;;;16.68;100.00;97979.78;6208397;28;20232;-52
2023/08/14 01:30:54;;;;;;;8.00;7.20;;;;;;;16.65;100.00;97981.16;6202499;28;20282;-53
2023/08/14 01:34:05;;;;;;;8.13;7.43;;;;;;;16.63;100.00;97974.41;6237213;28;20224;-52
2023/08/14 01:37:44;;;;;;;8.93;8.17;;;;;;;16.60;100.00;97967.72;6223250;28;20224;-52
2023/08/14 01:41:06;;;;;;;9.13;8.23;;;;;;;16.47;100.00;97961.00;6223476;28;20610;-53
2023/08/14 01:44:17;;;;;;;8.80;8.10;;;;;;;16.56;100.00;97971.22;6225977;28;20228;-52
2023/08/14 01:47:23;;;;;;;9.37;8.50;;;;;;;16.55;100.00;97983.03;6234592;28;20281;-50
2023/08/14 01:50:32;;;;;;;8.93;8.13;;;;;;;16.50;100.00;97973.94;6227212;28;20228;-54
2023/08/14 01:53:42;;;;;;;8.87;8.17;;;;;;;16.51;100.00;97972.84;6209458;28;20232;-53
2023/08/14 01:56:50;;;;;;;9.07;8.30;;;;;;;16.50;100.00;97983.84;6238273;28;20228;-54
2023/08/14 01:59:59;;;;;;;9.07;8.23;;;;;;;16.48;100.00;97978.75;6223215;28;20732;-52
2023/08/14 02:03:16;;;;;;;9.00;8.20;;;;;;;16.48;100.00;97986.81;6209240;28;20224;-53
2023/08/14 02:06:23;;;;;;;11.10;8.37;;;;;;;16.43;100.00;97986.84;6232731;28;20204;-52
2023/08/14 02:09:32;;;;;;;9.23;8.37;;;;;;;16.41;100.00;97985.50;6228761;28;20704;-53
2023/08/14 02:12:35;;;;;;;10.43;7.97;;;;;;;16.42;100.00;97984.44;6250197;23;20239;-57
2023/08/14 02:15:45;;;;;;;11.20;8.43;;;;;;;16.38;100.00;97988.72;6226293;28;20294;-57
2023/08/14 02:18:48;;;;;;;9.50;8.60;;;;;;;16.36;100.00;97998.97;6235098;28;20227;-57
2023/08/14 02:21:50;;;;;;;9.53;8.43;;;;;;;16.24;100.00;97980.41;6229616;28;20289;-57
2023/08/14 02:24:52;;;;;;;9.90;9.07;;;;;;;16.32;100.00;97998.69;6228724;28;20232;-57
2023/08/14 02:27:55;;;;;;;10.27;9.27;;;;;;;16.33;100.00;98000.31;6228679;28;20314;-48
2023/08/14 02:31:04;;;;;;;9.50;8.70;;;;;;;16.30;100.00;98006.22;6230444;28;20262;-51
2023/08/14 02:34:09;;;;;;;9.93;9.03;;;;;;;16.25;100.00;97990.91;6236058;28;20236;-52
2023/08/14 02:37:12;;;;;;;9.23;8.50;;;;;;;16.27;100.00;97995.22;6230541;28;20322;-50
2023/08/14 02:40:15;;;;;;;10.40;9.30;;;;;;;16.31;100.00;97998.97;6230343;28;20365;-53
2023/08/14 02:43:18;;;;;;;9.90;8.90;;;;;;;16.28;100.00;98007.56;6229343;28;20238;-52
2023/08/14 02:46:21;;;;;;;9.87;9.07;;;;;;;16.27;100.00;98012.16;6229783;28;20242;-52
2023/08/14 02:49:24;;;;;;;9.20;8.40;;;;;;;16.28;100.00;98021.00;6229777;28;20226;-51
2023/08/14 02:52:26;;;;;;;9.97;9.07;;;;;;;16.29;100.00;98019.94;6229729;28;20288;-50
2023/08/14 02:55:29;;;;;;;9.77;8.97;;;;;;;16.29;100.00;98018.03;6228922;28;20228;-52
2023/08/14 02:58:35;;;;;;;10.10;9.10;;;;;;;16.29;100.00;98026.09;6226046;28;20237;-53
2023/08/14 03:01:38;;;;;;;9.53;8.53;;;;;;;16.24;100.00;98032.28;6228410;28;20708;-51
2023/08/14 03:04:41;;;;;;;9.23;8.33;;;;;;;16.24;100.00;98026.13;6234912;28;20720;-54
2023/08/14 03:07:44;;;;;;;9.90;8.97;;;;;;;16.23;100.00;98032.56;6229609;28;20223;-53
2023/08/14 03:10:46;;;;;;;10.10;9.20;;;;;;;16.16;100.00;98035.53;6229369;28;20285;-53
2023/08/14 03:13:49;;;;;;;10.37;9.47;;;;;;;16.11;100.00;98032.84;6211469;28;20231;-53
2023/08/14 03:16:51;;;;;;;10.30;9.30;;;;;;;16.02;100.00;98012.97;6217010;28;20278;-53
2023/08/14 03:19:54;;;;;;;9.97;9.07;;;;;;;16.12;100.00;98025.59;6230099;28;20446;-53
2023/08/14 03:22:56;;;;;;;10.70;9.70;;;;;;;16.15;100.00;98025.84;6229407;28;20239;-52
2023/08/14 03:25:59;;;;;;;10.53;9.63;;;;;;;16.07;100.00;98023.72;6229513;28;20220;-54
2023/08/14 03:29:01;;;;;;;11.13;10.17;;;;;;;16.07;100.00;98025.59;6228402;28;20230;-52
2023/08/14 03:32:04;;;;;;;9.77;8.97;;;;;;;15.97;100.00;98018.34;6203413;28;20235;-51
2023/08/14 03:35:07;;;;;;;10.13;9.13;;;;;;;16.02;100.00;98026.41;6214873;28;20362;-49
2023/08/14 03:38:09;;;;;;;11.33;10.33;;;;;;;16.07;100.00;98026.41;6227428;28;20228;-53
2023/08/14 03:41:13;;;;;;;10.83;9.73;;;;;;;16.07;100.00;98031.78;6224021;28;20712;-54
2023/08/14 03:44:15;;;;;;;9.37;8.57;;;;;;;16.06;100.00;98026.66;6229887;28;20226;-53
2023/08/14 03:47:18;;;;;;;9.30;8.50;;;;;;;16.06;100.00;98024.78;6226955;28;20274;-53
2023/08/14 03:50:21;;;;;;;10.53;9.43;;;;;;;16.06;100.00;98027.47;6233453;28;20574;-52
2023/08/14 03:53:23;;;;;;;9.47;8.67;;;;;;;16.03;100.00;98029.88;6220739;28;20236;-51
2023/08/14 03:56:25;;;;;;;9.73;8.57;;;;;;;16.08;100.00;98035.25;6226261;28;20228;-52
2023/08/14 03:59:29;;;;;;;10.57;9.57;;;;;;;16.07;100.00;98034.47;6228201;28;20594;-52
2023/08/14 04:02:32;;;;;;;11.27;9.37;;;;;;;15.80;100.00;98001.66;6194717;28;20243;-51
2023/08/14 04:05:41;;;;;;;9.87;8.87;;;;;;;16.04;100.00;98034.97;6228274;28;20227;-52
2023/08/14 04:08:44;;;;;;;10.57;9.50;;;;;;;16.02;100.00;98042.53;6224285;28;20232;-51
2023/08/14 04:11:46;;;;;;;10.03;9.10;;;;;;;16.00;100.00;98037.38;6209529;28;20282;-50
2023/08/14 04:14:49;;;;;;;9.97;9.07;;;;;;;16.01;100.00;98032.84;6224925;28;20518;-50
2023/08/14 04:17:52;;;;;;;9.63;8.83;;;;;;;16.00;100.00;98041.97;6216160;28;20715;-51
2023/08/14 04:20:56;;;;;;;13.13;9.93;;;;;;;16.01;100.00;98043.59;6235617;28;20712;-54
2023/08/14 04:23:58;;;;;;;10.33;9.33;;;;;;;16.02;100.00;98050.59;6233812;28;20221;-51
2023/08/14 04:27:00;;;;;;;10.93;9.93;;;;;;;16.00;100.00;98041.97;6228045;28;20739;-54
2023/08/14 04:30:05;;;;;;;10.87;9.87;;;;;;;16.00;100.00;98044.66;6233435;28;20239;-53
2023/08/14 04:33:07;;;;;;;11.07;9.30;;;;;;;16.00;100.00;98055.41;6214914;28;20246;-51
2023/08/14 04:36:11;;;;;;;11.00;10.00;;;;;;;15.92;100.00;98043.31;6229874;28;20345;-53
2023/08/14 04:39:14;;;;;;;11.03;9.97;;;;;;;16.03;100.00;98054.06;6241186;28;20235;-49
2023/08/14 04:42:17;;;;;;;11.20;9.83;;;;;;;15.94;100.00;98046.53;6233276;28;20295;-51
2023/08/14 04:45:21;;;;;;;12.83;11.07;;;;;;;16.04;100.00;98059.16;6231562;28;20216;-51
2023/08/14 04:48:23;;;;;;;10.43;9.43;;;;;;;16.05;100.00;98054.59;6231490;28;20340;-53
2023/08/14 04:51:26;;;;;;;11.67;9.93;;;;;;;16.09;100.00;98050.31;6229703;28;20216;-53
2023/08/14 04:54:29;;;;;;;11.00;10.00;;;;;;;16.20;100.00;98065.34;6230017;28;20228;-51
2023/08/14 04:57:32;;;;;;;10.97;9.90;;;;;;;16.24;100.00;98061.06;6230098;28;20227;-53
2023/08/14 05:00:34;;;;;;;10.57;9.67;;;;;;;16.24;100.00;98066.44;6238866;28;20528;-53
2023/08/14 05:03:39;;;;;;;10.73;9.83;;;;;;;16.29;100.00;98063.75;6227858;28;20228;-51
2023/08/14 05:06:42;;;;;;;11.73;10.63;;;;;;;16.29;100.00;98068.31;6235752;28;20208;-52
2023/08/14 05:09:48;;;;;;;11.70;10.60;;;;;;;16.33;100.00;98074.78;6230921;28;20708;-52
2023/08/14 05:12:51;;;;;;;11.17;10.07;;;;;;;16.32;100.00;98067.78;6232060;28;20236;-52
2023/08/14 05:15:55;;;;;;;10.13;9.33;;;;;;;16.39;100.00;98079.06;6216762;28;20227;-53
2023/08/14 05:19:09;;;;;;;9.63;8.90;;;;;;;16.42;100.00;98073.16;6211345;28;20232;-52
2023/08/14 05:22:11;;;;;;;10.23;9.33;;;;;;;16.44;100.00;98084.44;6231610;28;20238;-52
2023/08/14 05:25:13;;;;;;;11.17;10.07;;;;;;;16.47;100.00;98083.91;6231350;28;20720;-51
2023/08/14 05:28:16;;;;;;;10.77;9.80;;;;;;;16.48;100.00;98077.47;6205326;28;20847;-51
2023/08/14 05:31:18;;;;;;;11.23;10.13;;;;;;;16.56;100.00;98087.69;6237442;28;20285;-52
2023/08/14 05:34:20;;;;;;;10.00;9.20;;;;;;;16.59;100.00;98081.75;6226182;28;20220;-53
2023/08/14 05:37:22;;;;;;;10.57;9.77;;;;;;;16.62;100.00;98083.91;6231198;28;20373;-52
2023/08/14 05:40:28;;;;;;;10.57;9.77;;;;;;;16.65;100.00;98078.00;6231070;28;20231;-54
2023/08/14 05:43:30;;;;;;;10.90;10.00;;;;;;;16.68;100.00;98079.31;6229709;28;20236;-52
2023/08/14 05:46:32;;;;;;;10.67;9.80;;;;;;;16.71;100.00;98070.72;6230265;28;20239;-52
2023/08/14 05:49:35;;;;;;;10.27;9.47;;;;;;;16.75;100.00;98078.00;6230006;28;20382;-51
2023/08/14 05:52:37;;;;;;;11.43;10.40;;;;;;;16.77;100.00;98075.03;6236427;28;20716;-54
2023/08/14 05:55:41;;;;;;;11.13;10.23;;;;;;;16.82;100.00;98072.34;6231263;28;20225;-53
2023/08/14 05:58:43;;;;;;;11.67;10.77;;;;;;;16.88;100.00;98068.53;6231572;28;20235;-51
2023/08/14 06:01:45;;;;;;;11.60;10.60;;;;;;;16.93;100.00;98067.72;6225586;28;20227;-54
2023/08/14 06:04:48;;;;;;;10.57;9.77;;;;;;;17.01;100.00;98069.88;6231305;28;20235;-51
2023/08/14 06:07:52;;;;;;;10.83;9.93;;;;;;;17.12;100.00;98074.13;6232153;28;20227;-53
2023/08/14 06:10:54;;;;;;;11.10;10.10;;;;;;;17.22;100.00;98074.09;6196497;28;20231;-53
2023/08/14 06:13:57;;;;;;;11.90;10.90;;;;;;;17.26;100.00;98067.09;6226746;28;20258;-52
2023/08/14 06:16:59;;;;;;;12.70;11.47;;;;;;;17.45;100.00;98074.56;6230882;28;20239;-54
2023/08/14 06:20:02;;;;;;;10.80;9.80;;;;;;;17.41;100.00;98062.72;6230476;28;20366;-52
2023/08/14 06:23:04;;;;;;;11.73;10.73;;;;;;;17.60;100.00;98073.69;6230396;28;20326;-52
2023/08/14 06:26:07;;;;;;;12.47;11.37;;;;;;;17.72;100.00;98082.22;6229410;28;20239;-53
2023/08/14 06:29:09;;;;;;;11.73;10.73;;;;;;;17.82;100.00;98086.78;6229301;28;20334;-53
2023/08/14 06:32:11;;;;;;;9.97;9.17;;;;;;;17.90;100.00;98092.41;6228467;28;20235;-54
2023/08/14 06:35:13;;;;;;;9.73;8.93;;;;;;;18.01;100.00;98082.34;6229919;28;20327;-52
2023/08/14 06:38:15;;;;;;;10.00;9.20;;;;;;;18.09;100.00;98076.38;6234220;28;20239;-52
2023/08/14 06:41:18;;;;;;;11.20;10.23;;;;;;;18.17;100.00;98074.94;6228341;28;20227;-54
2023/08/14 06:44:20;;;;;;;11.23;10.13;;;;;;;18.38;100.00;98083.72;6230109;28;20601;-53
2023/08/14 06:47:22;;;;;;;10.20;9.37;;;;;;;18.52;100.00;98081.94;6228104;28;20239;-53
2023/08/14 06:50:25;;;;;;;10.20;9.40;;;;;;;18.65;100.00;98077.78;6228369;28;20232;-54
2023/08/14 06:53:27;;;;;;;11.03;10.13;;;;;;;18.81;100.00;98079.28;6209328;28;20254;-54
2023/08/14 06:56:30;;;;;;;10.63;9.80;;;;;;;18.93;100.00;98073.50;6228681;28;20278;-51
2023/08/14 06:59:32;;;;;;;10.83;9.83;;;;;;;19.15;100.00;98087.28;6224141;28;20239;-54
2023/08/14 07:02:34;;;;;;;9.93;9.10;;;;;;;19.32;100.00;98084.94;6228102;28;20243;-54
2023/08/14 07:05:36;;;;;;;11.20;10.30;;;;;;;19.53;100.00;98087.38;6224304;28;20232;-53
2023/08/14 07:08:39;;;;;;;9.80;9.00;;;;;;;19.65;100.00;98081.56;6234056;28;20235;-52
2023/08/14 07:11:43;;;;;;;9.90;9.07;;;;;;;19.78;100.00;98072.75;6227768;28;20278;-53
2023/08/14 07:14:45;;;;;;;10.10;9.30;;;;;;;20.06;100.00;98089.94;6228066;28;20224;-51
2023/08/14 07:17:47;;;;;;;9.90;8.97;;;;;;;20.22;100.00;98088.59;6224340;28;20778;-53
2023/08/14 07:20:50;;;;;;;9.53;8.70;;;;;;;20.38;100.00;98086.44;6210527;28;20713;-53
2023/08/14 07:23:53;;;;;;;9.57;8.73;;;;;;;20.52;100.00;98091.94;6227727;28;20300;-53
2023/08/14 07:26:55;;;;;;;9.60;8.80;;;;;;;20.68;100.00;98093.28;6227621;28;20267;-54
2023/08/14 07:29:57;;;;;;;8.40;7.60;;;;;;;20.84;100.00;98091.94;6212673;28;20239;-53
2023/08/14 07:32:59;;;;;;;7.80;7.20;;;;;;;21.00;100.00;98086.22;6229180;28;20289;-53
2023/08/14 07:36:03;;;;;;;8.20;7.50;;;;;;;21.18;100.00;98085.34;6211185;28;20223;-53
2023/08/14 07:39:05;;;;;;;7.73;7.10;;;;;;;21.25;100.00;98080.31;6228560;28;20236;-52
2023/08/14 07:42:07;;;;;;;7.60;6.90;;;;;;;21.43;100.00;98088.66;6223502;28;20319;-54
2023/08/14 07:45:10;;;;;;;7.00;6.33;;;;;;;21.52;100.00;98081.44;6227124;28;20291;-55
2023/08/14 07:48:12;;;;;;;7.20;6.50;;;;;;;21.62;98.65;98083.91;6225404;28;20231;-54
2023/08/14 07:51:15;;;;;;;6.33;5.83;;;;;;;21.70;97.99;98080.50;6225933;28;20257;-55
2023/08/14 07:54:17;;;;;;;6.70;6.13;;;;;;;21.80;96.12;98083.00;6233166;28;20599;-53
2023/08/14 07:57:20;;;;;;;6.63;6.13;;;;;;;21.93;94.26;98083.28;6217484;28;20215;-53
2023/08/14 08:00:22;;;;;;;6.43;5.80;;;;;;;22.02;93.96;98092.25;6236624;28;20250;-54
2023/08/14 08:03:24;;;;;;;5.87;5.37;;;;;;;22.09;91.91;98090.75;6233215;28;20249;-52
2023/08/14 08:06:26;;;;;;;6.17;5.57;;;;;;;22.19;90.03;98086.22;6238440;28;20282;-53
2023/08/14 08:09:29;;;;;;;5.57;5.00;;;;;;;22.27;88.87;98086.31;6233837;28;20223;-53
2023/08/14 08:12:32;;;;;;;5.47;4.87;;;;;;;22.38;86.71;98089.56;6233458;28;20283;-54
2023/08/14 08:15:34;;;;;;;5.13;4.73;;;;;;;22.46;85.83;98093.44;6233666;28;20318;-52
2023/08/14 08:18:36;;;;;;;5.83;4.73;;;;;;;22.50;83.03;98094.44;6233253;28;20216;-51
2023/08/14 08:21:39;;;;;;;4.40;4.00;;;;;;;22.64;78.92;98106.03;6233064;28;20230;-51
2023/08/14 08:24:41;;;;;;;6.15;4.47;;;;;;;22.71;78.79;98100.97;6233494;28;20235;-56
2023/08/14 08:27:43;;;;;;;4.63;4.22;;;;;;;22.82;76.94;98110.44;6234221;28;20223;-51
2023/08/14 08:30:46;;;;;;;4.33;3.93;;;;;;;22.97;72.05;98105.78;6227796;28;20277;-53
2023/08/14 08:33:48;;;;;;;4.30;4.00;;;;;;;23.01;74.67;98102.13;6230582;28;20224;-51
2023/08/14 08:36:51;;;;;;;4.97;4.57;;;;;;;23.06;76.85;98101.97;6233290;28;20307;-54
2023/08/14 08:39:53;;;;;;;4.60;4.20;;;;;;;23.08;76.95;98101.66;6233218;28;20275;-51
2023/08/14 08:42:56;;;;;;;4.65;4.25;;;;;;;23.15;77.57;98099.28;6233876;28;20231;-51
2023/08/14 08:46:01;;;;;;;4.72;4.22;;;;;;;23.21;77.20;98108.91;6232860;28;20300;-53
2023/08/14 08:49:04;;;;;;;4.28;3.88;;;;;;;23.26;73.02;98099.81;6232551;28;20960;-55
2023/08/14 08:52:08;;;;;;;4.70;4.30;;;;;;;23.42;72.92;98103.72;6232908;28;20313;-52
2023/08/14 08:55:11;;;;;;;4.32;3.72;;;;;;;23.40;73.37;98089.63;6233367;28;20272;-51
2023/08/14 08:58:18;;;;;;;5.75;4.63;;;;;;;23.49;72.40;98087.72;6228981;28;20235;-54
2023/08/14 09:01:21;;;;;;;5.15;3.90;;;;;;;23.53;73.03;98083.25;6232179;28;20263;-53
2023/08/14 09:04:23;;;;;;;4.57;4.05;;;;;;;23.66;72.60;98090.53;6223096;28;20611;-53
2023/08/14 09:07:26;;;;;;;4.18;3.85;;;;;;;23.75;70.86;98082.38;6232651;28;20208;-54
2023/08/14 09:10:29;;;;;;;4.80;4.43;;;;;;;23.78;71.41;98087.16;6232730;28;20373;-53
2023/08/14 09:13:31;;;;;;;5.55;5.00;;;;;;;23.93;69.45;98073.09;6231742;28;20310;-56
2023/08/14 09:16:34;;;;;;;6.13;5.53;;;;;;;24.03;70.86;98079.34;6228930;28;20234;-54
2023/08/14 09:19:38;;;;;;;4.00;3.65;;;;;;;24.06;70.31;98086.88;6231745;28;20239;-53
2023/08/14 09:22:41;;;;;;;5.93;3.17;;;;;;;24.10;68.43;98077.75;6231850;28;20234;-57
2023/08/14 09:25:46;;;;;;;3.50;3.17;;;;;;;24.17;66.96;98069.09;6228393;28;20232;-55
2023/08/14 09:28:49;;;;;;;3.67;3.22;;;;;;;24.29;66.70;98079.34;6231958;28;20235;-52
2023/08/14 09:31:51;;;;;;;7.93;2.92;;;;;;;24.77;54.40;98070.16;6232171;28;20232;-55
2023/08/14 09:35:01;;;;;;;3.78;2.60;;;;;;;24.91;53.06;98071.53;6231610;28;20224;-55
2023/08/14 09:38:04;;;;;;;2.72;2.53;;;;;;;25.08;60.50;98078.91;6229079;28;20289;-54
2023/08/14 09:41:07;;;;;;;3.92;3.58;;;;;;;24.92;62.07;98059.50;6228676;28;20240;-54
2023/08/14 09:44:09;;;;;;;3.22;2.55;;;;;;;24.99;60.97;98069.94;6231328;28;20232;-55
2023/08/14 09:47:14;;;;;;;4.47;2.75;;;;;;;24.96;62.82;98065.91;6229233;28;20318;-54
2023/08/14 09:50:19;;;;;;;3.08;2.38;;;;;;;24.96;62.55;98065.13;6228522;28;20255;-54
2023/08/14 09:53:22;;;;;;;4.53;2.95;;;;;;;25.09;58.83;98068.78;6231471;28;20232;-56
2023/08/14 09:56:25;;;;;;;3.22;2.03;;;;;;;25.44;55.70;98074.88;6230956;28;20609;-54
2023/08/14 09:59:27;;;;;;;3.28;2.35;;;;;;;25.45;58.53;98057.38;6227713;28;20243;-55
2023/08/14 10:02:33;;;;;;;5.95;2.35;;;;;;;25.41;60.44;98070.88;6231323;28;20735;-55
2023/08/14 10:05:37;;;;;;;2.50;2.30;;;;;;;25.55;50.98;98064.38;6212890;28;20571;-51
2023/08/14 10:08:44;;;;;;;2.67;2.42;;;;;;;25.58;56.75;98061.81;6232377;28;20238;-53
2023/08/14 10:11:48;;;;;;;2.42;2.00;;;;;;;26.02;45.65;98059.59;6231305;28;20658;-54
2023/08/14 10:15:13;;;;;;;2.50;2.30;;;;;;;26.18;55.47;98067.97;6209590;28;20224;-55
2023/08/14 10:18:22;;;;;;;2.70;2.03;;;;;;;26.13;54.40;98060.78;6227319;28;20228;-54
2023/08/14 10:21:27;;;;;;;2.58;2.30;;;;;;;26.07;57.26;98069.50;6226571;28;20886;-53
2023/08/14 10:24:31;;;;;;;5.20;2.05;;;;;;;26.32;46.89;98056.75;6227255;28;20234;-52
2023/08/14 10:27:34;;;;;;;4.15;2.10;;;;;;;26.51;49.48;98061.75;6229065;28;20228;-53
2023/08/14 10:30:37;;;;;;;3.90;2.13;;;;;;;26.71;43.21;98049.97;6230315;28;20658;-51
2023/08/14 10:33:40;;;;;;;2.72;2.30;;;;;;;26.80;51.07;98055.31;6226234;28;20276;-53
2023/08/14 10:36:42;;;;;;;2.97;1.90;;;;;;;26.68;51.74;98054.16;6232169;28;20272;-51
2023/08/14 10:39:48;;;;;;;2.38;1.80;;;;;;;26.64;51.77;98052.44;6233069;28;20300;-54
2023/08/14 10:42:55;;;;;;;2.63;2.00;;;;;;;26.86;44.42;98052.03;6232849;28;20220;-52
2023/08/14 10:45:57;;;;;;;2.20;2.05;;;;;;;26.94;48.59;98050.31;6229034;28;20239;-50
2023/08/14 10:49:00;;;;;;;3.90;2.42;;;;;;;26.89;51.93;98045.06;6226933;28;20227;-52
2023/08/14 10:52:03;;;;;;;4.57;2.13;;;;;;;26.85;52.81;98047.72;6227138;28;20292;-52
2023/08/14 10:55:15;;;;;;;2.40;2.20;;;;;;;26.96;49.56;98053.53;6226787;28;20313;-51
2023/08/14 11:02:41;;;;;;;2.40;2.20;;;;;;;27.30;44.97;98044.13;6225364;28;20592;-52
2023/08/14 11:05:43;;;;;;;2.50;2.10;;;;;;;27.49;43.00;98046.28;6226384;28;20824;-50
2023/08/14 11:08:47;;;;;;;3.28;2.40;;;;;;;27.70;40.60;98041.44;6227970;28;20236;-50
2023/08/14 11:11:56;;;;;;;2.70;2.33;;;;;;;27.68;40.76;98046.44;6227755;28;20681;-53
2023/08/14 11:14:58;;;;;;;3.33;2.30;;;;;;;27.62;42.50;98042.34;6223464;28;20263;-50
2023/08/14 11:18:05;;;;;;;4.63;2.30;;;;;;;27.63;43.48;98049.41;6227632;28;20231;-50
2023/08/14 11:21:07;;;;;;;3.90;2.63;;;;;;;27.63;43.76;98043.16;6231029;28;20239;-55
2023/08/14 11:24:32;;;;;;;2.47;2.20;;;;;;;27.71;45.34;98064.16;6225840;28;20264;-54
2023/08/14 11:27:34;;;;;;;4.43;2.28;;;;;;;27.67;45.13;98049.53;6224816;28;20380;-52
2023/08/14 11:30:36;;;;;;;2.60;2.20;;;;;;;27.75;41.25;98051.38;6208356;28;20350;-51
2023/08/14 11:33:40;;;;;;;3.60;2.45;;;;;;;27.87;41.87;98054.06;6227941;28;20705;-55
2023/08/14 11:36:53;;;;;;;5.38;2.20;;;;;;;27.78;42.36;98045.19;6227704;28;20265;-51
2023/08/14 11:40:11;;;;;;;2.80;2.10;;;;;;;27.76;42.71;98042.81;6223021;28;20243;-57
2023/08/14 11:43:15;;;;;;;2.83;2.35;;;;;;;27.82;44.03;98042.56;6218814;28;20224;-58
2023/08/14 11:46:18;;;;;;;4.20;2.30;;;;;;;27.85;42.39;98036.41;6231739;28;20227;-56
2023/08/14 11:49:20;;;;;;;4.97;2.50;;;;;;;27.85;42.75;98036.41;6232726;28;20246;-56
2023/08/14 11:52:24;;;;;;;3.60;2.40;;;;;;;27.94;41.83;98034.34;6194233;28;20610;-57
2023/08/14 11:55:27;;;;;;;2.65;2.10;;;;;;;27.96;42.36;98026.56;6226551;28;20232;-56
2023/08/14 11:58:31;;;;;;;2.33;2.05;;;;;;;27.97;42.56;98034.41;6226738;28;20239;-56
2023/08/14 12:01:37;;;;;;;2.53;2.03;;;;;;;28.02;42.83;98025.97;6226477;28;20358;-57
2023/08/14 12:04:40;;;;;;;2.53;2.22;;;;;;;28.11;41.41;98031.28;6226202;28;20251;-57
2023/08/14 12:07:43;;;;;;;3.03;2.03;;;;;;;28.11;39.89;98027.75;6226911;28;20373;-58
2023/08/14 12:10:46;;;;;;;3.08;2.20;;;;;;;28.12;42.07;98018.38;6227151;28;20389;-56
2023/08/14 12:13:51;;;;;;;2.85;2.28;;;;;;;28.10;39.86;98024.22;6226434;28;20235;-57
2023/08/14 12:16:54;;;;;;;3.53;2.10;;;;;;;28.03;41.74;98032.25;6225752;28;20249;-57
2023/08/14 12:20:03;;;;;;;3.35;2.13;;;;;;;28.03;38.03;98022.09;6226931;28;20615;-60
2023/08/14 12:23:14;;;;;;;3.08;2.58;;;;;;;28.05;40.81;98021.75;6224106;28;20227;-57
2023/08/14 12:26:16;;;;;;;4.18;2.40;;;;;;;28.16;37.75;98025.56;6226436;28;20263;-56
2023/08/14 12:29:20;;;;;;;2.22;1.85;;;;;;;28.16;37.70;98013.81;6226059;28;20315;-57
2023/08/14 12:32:24;;;;;;;3.05;2.25;;;;;;;28.02;39.08;98015.00;6209045;28;20318;-57
2023/08/14 12:35:26;;;;;;;3.53;2.28;;;;;;;28.00;40.00;98022.78;6208720;28;20228;-57
2023/08/14 12:38:29;;;;;;;3.03;2.10;;;;;;;28.03;39.69;98024.03;6227755;28;20374;-57
2023/08/14 12:41:31;;;;;;;4.88;2.15;;;;;;;28.25;37.81;98015.25;6229779;28;20236;-57
2023/08/14 12:44:34;;;;;;;4.50;2.22;;;;;;;28.17;40.60;98013.47;6231245;28;20983;-54
2023/08/14 12:47:36;;;;;;;3.10;2.38;;;;;;;28.02;39.62;98009.53;6226893;28;20373;-53
2023/08/14 12:50:39;;;;;;;2.30;2.10;;;;;;;27.99;39.78;98010.25;6231134;28;20227;-52
2023/08/14 12:53:41;;;;;;;3.58;2.15;;;;;;;27.95;39.24;98003.84;6227373;28;20309;-51
2023/08/14 12:56:44;;;;;;;3.75;2.05;;;;;;;28.11;37.90;98000.38;6230244;28;20232;-54
2023/08/14 12:59:46;;;;;;;2.38;2.00;;;;;;;28.16;36.94;98009.13;6232288;28;20235;-53
2023/08/14 13:02:51;;;;;;;5.00;2.17;;;;;;;28.03;37.76;98000.19;6219422;28;20232;-51
2023/08/14 13:05:55;;;;;;;2.60;2.28;;;;;;;28.00;38.16;98005.56;6233281;28;20232;-52
2023/08/14 13:08:58;;;;;;;3.05;2.03;;;;;;;27.91;39.04;98002.16;6228206;28;20322;-52
2023/08/14 13:12:01;;;;;;;2.05;1.85;;;;;;;27.95;37.67;97995.63;6230677;28;20333;-53
2023/08/14 13:15:04;;;;;;;2.08;1.88;;;;;;;27.89;39.71;97997.03;6226423;28;20305;-54
2023/08/14 13:18:07;;;;;;;3.22;2.03;;;;;;;27.80;40.02;97992.84;6229731;28;20243;-54
2023/08/14 13:21:09;;;;;;;1.92;1.83;;;;;;;27.78;40.46;97987.69;6230310;28;20240;-51
2023/08/14 13:24:12;;;;;;;3.28;2.80;;;;;;;27.78;38.76;97984.97;6231487;28;20208;-54
2023/08/14 13:27:15;;;;;;;3.13;2.60;;;;;;;27.91;38.11;97986.53;6227816;28;20220;-52
2023/08/14 13:30:17;;;;;;;6.80;3.17;;;;;;;27.76;39.44;97990.78;6220997;28;20208;-52
2023/08/14 13:33:21;;;;;;;4.57;2.05;;;;;;;27.75;39.19;97999.38;6227462;28;20250;-55
2023/08/14 13:36:24;;;;;;;2.90;2.22;;;;;;;27.84;37.51;97988.28;6230784;28;20305;-54
2023/08/14 13:39:26;;;;;;;3.45;2.20;;;;;;;27.76;39.56;97984.53;6229964;28;20232;-55
2023/08/14 13:42:28;;;;;;;3.17;2.22;;;;;;;27.62;42.94;97982.13;6237398;28;20326;-53
2023/08/14 13:45:31;;;;;;;3.10;2.20;;;;;;;27.53;41.21;97982.25;6231392;28;20227;-54
2023/08/14 13:48:33;;;;;;;3.25;2.20;;;;;;;27.63;40.26;97983.72;6229871;28;20277;-54
2023/08/14 13:51:36;;;;;;;3.75;2.13;;;;;;;27.58;42.47;97983.16;6230596;28;20245;-54
2023/08/14 13:54:38;;;;;;;3.90;2.28;;;;;;;27.35;43.81;97970.00;6231189;28;20261;-50
2023/08/14 13:57:40;;;;;;;5.78;2.47;;;;;;;27.39;42.90;97976.41;6230842;28;20289;-54
2023/08/14 14:00:42;;;;;;;2.90;2.45;;;;;;;27.36;43.47;97976.28;6230102;28;20236;-54
2023/08/14 14:03:44;;;;;;;2.85;2.58;;;;;;;27.33;42.71;97968.75;6230686;28;20238;-51
2023/08/14 14:06:47;;;;;;;3.35;2.42;;;;;;;27.33;42.89;97983.22;6229844;28;20705;-51
2023/08/14 14:09:49;;;;;;;4.57;2.70;;;;;;;27.23;44.46;97980.97;6228926;28;20235;-54
2023/08/14 14:12:51;;;;;;;4.85;2.78;;;;;;;27.29;43.38;97973.31;6226037;28;20239;-54
2023/08/14 14:15:56;;;;;;;3.97;2.72;;;;;;;27.39;41.42;97967.38;6229963;28;20234;-52
2023/08/14 14:18:59;;;;;;;3.95;2.30;;;;;;;27.43;42.34;97971.81;6230038;28;20234;-54
2023/08/14 14:22:02;;;;;;;3.88;2.60;;;;;;;27.36;42.55;97968.06;6225869;28;20610;-53
2023/08/14 14:25:05;;;;;;;2.97;2.25;;;;;;;27.32;42.11;97975.38;6212548;28;20260;-55